Time;durP1;ratioP1;P1;durP2;ratioP2;P2;SDS_P1;SDS_P2;PMS_P1;PMS_P2;Temp;Humidity;BMP_temperature;BMP_pressure;BME280_temperature;BME280_humidity;BME280_pressure;Samples;Min_cycle;Max_cycle;Signal;HPM_P1;HPM_P2
2021/07/17 00:00:24;;;;;;;15.83;8.57;;;19.00;99.90;;;;;;6195449;23;20420;-76
2021/07/17 00:02:53;;;;;;;21.65;9.27;;;19.00;99.90;;;;;;6160938;23;20423;-76
2021/07/17 00:05:23;;;;;;;18.93;8.20;;;19.00;99.90;;;;;;6196347;23;20604;-77
2021/07/17 00:07:51;;;;;;;20.07;9.40;;;19.00;99.90;;;;;;6158983;23;20409;-77
2021/07/17 00:10:22;;;;;;;14.47;7.90;;;19.00;99.90;;;;;;6196621;23;20969;-76
2021/07/17 00:12:51;;;;;;;16.33;8.50;;;19.00;99.90;;;;;;6195745;23;20467;-77
2021/07/17 00:15:22;;;;;;;15.10;8.03;;;18.90;99.90;;;;;;6158928;23;20404;-76
2021/07/17 00:17:52;;;;;;;15.07;7.73;;;18.90;99.90;;;;;;6160663;23;20455;-76
2021/07/17 00:20:20;;;;;;;19.77;8.97;;;18.90;99.90;;;;;;6158931;23;20522;-76
2021/07/17 00:22:48;;;;;;;19.37;8.50;;;18.90;99.90;;;;;;6197549;23;20404;-76
2021/07/17 00:25:18;;;;;;;17.80;8.67;;;18.90;99.90;;;;;;6159126;23;20491;-77
2021/07/17 00:27:47;;;;;;;17.47;9.00;;;18.90;99.90;;;;;;6159242;23;20416;-76
2021/07/17 00:30:17;;;;;;;19.90;9.17;;;18.80;99.90;;;;;;6160192;23;20519;-76
2021/07/17 00:32:46;;;;;;;16.67;9.13;;;18.80;99.90;;;;;;6159057;23;20507;-77
2021/07/17 00:35:16;;;;;;;17.83;9.30;;;18.80;99.90;;;;;;6159908;23;20443;-75
2021/07/17 00:37:44;;;;;;;17.77;9.07;;;18.70;99.90;;;;;;6158940;23;20524;-76
2021/07/17 00:40:14;;;;;;;17.27;8.70;;;18.70;99.90;;;;;;6159973;23;20478;-76
2021/07/17 00:42:43;;;;;;;23.83;8.07;;;18.70;99.90;;;;;;6187182;23;20400;-76
2021/07/17 00:45:12;;;;;;;22.05;9.88;;;18.70;99.90;;;;;;6157942;23;20414;-76
2021/07/17 00:47:41;;;;;;;19.67;8.47;;;18.70;99.90;;;;;;6158516;23;20208;-77
2021/07/17 00:50:11;;;;;;;20.63;9.53;;;18.70;99.90;;;;;;6196579;23;20925;-77
2021/07/17 00:52:41;;;;;;;21.27;8.17;;;18.70;99.90;;;;;;6196006;23;20877;-76
2021/07/17 00:55:12;;;;;;;19.70;8.17;;;18.70;99.90;;;;;;6160016;23;20416;-77
2021/07/17 00:57:42;;;;;;;18.77;9.10;;;18.60;99.90;;;;;;6195409;23;20435;-76
2021/07/17 01:00:13;;;;;;;18.10;8.97;;;18.60;99.90;;;;;;6193083;23;20424;-76
2021/07/17 01:02:45;;;;;;;17.57;7.73;;;18.60;99.90;;;;;;6160674;23;20515;-76
2021/07/17 01:05:15;;;;;;;17.23;8.10;;;18.60;99.90;;;;;;6158784;23;20864;-76
2021/07/17 01:07:45;;;;;;;16.87;8.80;;;18.60;99.90;;;;;;6159549;23;20490;-76
2021/07/17 01:10:16;;;;;;;18.60;8.60;;;18.60;99.90;;;;;;6159898;23;20755;-77
2021/07/17 01:12:44;;;;;;;18.00;7.57;;;18.50;99.90;;;;;;6195742;23;20442;-76
2021/07/17 01:15:13;;;;;;;18.00;9.43;;;18.50;99.90;;;;;;6161463;23;20404;-77
2021/07/17 01:17:41;;;;;;;27.30;8.57;;;18.50;99.90;;;;;;6195049;23;20563;-76
2021/07/17 01:20:12;;;;;;;20.30;9.33;;;18.50;99.90;;;;;;6194914;23;20510;-77
2021/07/17 02:20:43;;;;;;;19.07;8.67;;;18.30;99.90;;;;;;5922316;24;20419;-76
2021/07/17 02:23:13;;;;;;;22.50;8.40;;;18.30;99.90;;;;;;5933497;24;20587;-76
2021/07/17 02:25:41;;;;;;;15.40;7.80;;;18.30;99.90;;;;;;5930846;24;20450;-76
2021/07/17 02:28:09;;;;;;;18.83;7.47;;;18.30;99.90;;;;;;6017156;23;20420;-76
2021/07/17 02:30:37;;;;;;;14.20;7.23;;;18.30;99.90;;;;;;6076352;23;20460;-76
2021/07/17 02:33:06;;;;;;;15.93;7.57;;;18.30;99.90;;;;;;6077135;23;20399;-76
2021/07/17 02:35:35;;;;;;;14.60;7.40;;;18.30;99.90;;;;;;6076775;23;20419;-76
2021/07/17 02:38:04;;;;;;;16.67;7.57;;;18.30;99.90;;;;;;6042701;23;20470;-76
2021/07/17 02:40:32;;;;;;;15.07;7.63;;;18.30;99.90;;;;;;6042872;23;20533;-76
2021/07/17 02:43:00;;;;;;;14.63;7.17;;;18.30;99.90;;;;;;6042948;23;20412;-76
2021/07/17 02:45:29;;;;;;;14.90;7.07;;;18.30;99.90;;;;;;6108741;23;20410;-76
2021/07/17 02:47:57;;;;;;;14.43;7.80;;;18.30;99.90;;;;;;6101978;23;20446;-76
2021/07/17 02:50:25;;;;;;;18.03;8.30;;;18.30;99.90;;;;;;6136748;23;20425;-76
2021/07/17 02:52:55;;;;;;;11.00;6.47;;;18.30;99.90;;;;;;6101213;23;20424;-76
2021/07/17 02:55:23;;;;;;;15.93;9.00;;;18.20;99.90;;;;;;6101159;23;20417;-76
2021/07/17 02:57:51;;;;;;;14.40;6.87;;;18.20;99.90;;;;;;6127326;23;20798;-76
2021/07/17 03:00:19;;;;;;;15.90;7.55;;;18.20;99.90;;;;;;6100612;23;20418;-76
2021/07/17 03:02:49;;;;;;;15.80;8.30;;;18.20;99.90;;;;;;6101149;23;20505;-76
2021/07/17 03:05:17;;;;;;;17.13;6.87;;;18.20;99.90;;;;;;6137310;23;20453;-75
2021/07/17 03:07:45;;;;;;;12.10;7.93;;;18.20;99.90;;;;;;6101131;23;20532;-76
2021/07/17 03:10:15;;;;;;;11.80;7.07;;;18.20;99.90;;;;;;6100115;23;20422;-76
2021/07/17 03:12:43;;;;;;;16.77;6.47;;;18.30;99.90;;;;;;6137000;23;20306;-76
2021/07/17 03:15:12;;;;;;;13.83;6.27;;;18.20;99.90;;;;;;6101033;23;20504;-75
2021/07/17 03:17:40;;;;;;;12.33;6.93;;;18.20;99.90;;;;;;6101048;23;20516;-76
2021/07/17 03:20:09;;;;;;;9.73;5.73;;;18.20;99.90;;;;;;6136654;23;20536;-76
2021/07/17 03:22:37;;;;;;;10.90;5.33;;;18.20;99.90;;;;;;6100982;23;20410;-76
2021/07/17 03:25:07;;;;;;;17.67;6.93;;;18.30;99.90;;;;;;6136820;23;20406;-76
2021/07/17 03:27:37;;;;;;;11.37;5.60;;;18.30;99.90;;;;;;6136683;23;20788;-76
2021/07/17 03:30:06;;;;;;;9.43;5.20;;;18.30;99.90;;;;;;6101328;23;20920;-76
2021/07/17 03:32:35;;;;;;;12.40;6.63;;;18.30;99.90;;;;;;6100887;23;20445;-76
2021/07/17 03:35:03;;;;;;;8.17;4.47;;;18.30;99.90;;;;;;6136580;23;20485;-76
2021/07/17 03:37:31;;;;;;;4.87;3.07;;;18.30;99.90;;;;;;6137229;23;20864;-76
2021/07/17 03:40:00;;;;;;;6.60;3.60;;;18.30;99.90;;;;;;6100565;23;20438;-76
2021/07/17 03:42:28;;;;;;;7.53;3.40;;;18.30;99.90;;;;;;6100705;23;20444;-76
2021/07/17 03:44:57;;;;;;;5.23;2.97;;;18.30;99.90;;;;;;6100776;23;20419;-76
2021/07/17 03:47:25;;;;;;;7.63;3.37;;;18.30;99.90;;;;;;6100694;23;20420;-76
2021/07/17 03:49:54;;;;;;;4.77;2.80;;;18.30;99.90;;;;;;6136338;23;20485;-76
2021/07/17 03:52:22;;;;;;;3.43;2.83;;;18.40;99.90;;;;;;6100696;23;20413;-76
2021/07/17 03:54:50;;;;;;;7.27;3.60;;;18.40;99.90;;;;;;6100593;23;20422;-76
2021/07/17 03:57:20;;;;;;;3.60;2.97;;;18.40;99.90;;;;;;6126825;23;20736;-76
2021/07/17 03:59:48;;;;;;;6.80;3.00;;;18.40;99.90;;;;;;6101191;23;20524;-76
2021/07/17 04:02:17;;;;;;;3.67;2.30;;;18.40;99.90;;;;;;6101240;23;20445;-76
2021/07/17 04:04:47;;;;;;;5.50;2.87;;;18.40;99.90;;;;;;6136493;23;20410;-76
2021/07/17 04:07:16;;;;;;;5.67;2.50;;;18.50;99.90;;;;;;6126878;23;20416;-76
2021/07/17 04:09:44;;;;;;;3.93;2.70;;;18.60;99.90;;;;;;6136153;23;20402;-76
2021/07/17 04:12:13;;;;;;;4.57;2.07;;;18.50;99.90;;;;;;6100345;23;20417;-76
2021/07/17 04:14:41;;;;;;;5.73;2.50;;;18.60;99.90;;;;;;6100397;23;20923;-76
2021/07/17 04:17:11;;;;;;;2.70;2.20;;;18.60;99.90;;;;;;6136629;23;20386;-76
2021/07/17 04:19:41;;;;;;;4.07;2.60;;;18.60;99.90;;;;;;6100268;23;20437;-76
2021/07/17 04:22:09;;;;;;;9.40;2.47;;;18.60;99.90;;;;;;6100214;23;20456;-76
2021/07/17 04:24:37;;;;;;;4.93;2.23;;;18.60;99.90;;;;;;6100241;23;20421;-76
2021/07/17 04:27:05;;;;;;;5.67;2.30;;;18.70;99.90;;;;;;6100425;23;20926;-76
2021/07/17 04:29:34;;;;;;;4.23;2.40;;;18.70;99.90;;;;;;6100336;23;20426;-75
2021/07/17 04:32:02;;;;;;;4.30;2.20;;;18.70;99.90;;;;;;6100367;23;20477;-76
2021/07/17 04:34:31;;;;;;;8.73;3.10;;;18.70;99.90;;;;;;6100478;23;20429;-75
2021/07/17 04:37:01;;;;;;;5.07;2.20;;;18.70;99.90;;;;;;6100234;23;20418;-74
2021/07/17 04:39:29;;;;;;;3.93;2.73;;;18.70;99.90;;;;;;6100141;23;20502;-75
2021/07/17 04:42:30;;;;;;;4.80;2.47;;;18.80;99.90;;;;;;6135859;23;20456;-74
2021/07/17 04:45:34;;;;;;;4.63;2.37;;;18.80;99.90;;;;;;6135987;23;20486;-74
2021/07/17 04:48:12;;;;;;;6.57;3.20;;;18.80;99.90;;;;;;6100016;23;20428;-75
2021/07/17 04:50:41;;;;;;;8.27;3.07;;;18.80;99.90;;;;;;6100156;23;20488;-74
2021/07/17 04:53:11;;;;;;;4.17;2.67;;;18.90;99.90;;;;;;6100886;23;20885;-74
2021/07/17 04:55:40;;;;;;;6.10;2.97;;;18.90;99.90;;;;;;6126529;23;20444;-75
2021/07/17 04:58:10;;;;;;;5.90;3.20;;;18.90;99.90;;;;;;6136063;23;20412;-75
2021/07/17 05:00:38;;;;;;;8.33;3.10;;;18.90;99.90;;;;;;6136296;23;20528;-75
2021/07/17 05:03:06;;;;;;;5.80;2.83;;;18.90;99.90;;;;;;6100216;23;20390;-75
2021/07/17 05:05:34;;;;;;;6.70;3.87;;;19.00;99.90;;;;;;6136039;23;20448;-74
2021/07/17 05:08:03;;;;;;;6.20;2.70;;;19.00;99.90;;;;;;6136224;23;20822;-75
2021/07/17 05:10:32;;;;;;;6.80;3.60;;;19.10;99.90;;;;;;6132388;23;20198;-76
2021/07/17 05:13:10;;;;;;;9.40;2.90;;;19.10;99.90;;;;;;6135844;23;20414;-76
2021/07/17 05:15:39;;;;;;;5.87;3.70;;;19.10;99.90;;;;;;6135928;23;20393;-75
2021/07/17 05:18:07;;;;;;;7.22;3.60;;;19.10;99.90;;;;;;6099477;23;20737;-74
2021/07/17 05:20:35;;;;;;;6.43;3.73;;;19.20;99.90;;;;;;6126266;23;20257;-74
2021/07/17 05:23:04;;;;;;;9.10;2.50;;;19.20;99.90;;;;;;6136224;23;20452;-74
2021/07/17 05:25:34;;;;;;;5.80;3.40;;;19.20;99.90;;;;;;6136622;23;20402;-74
2021/07/17 05:28:02;;;;;;;5.70;3.50;;;19.30;99.90;;;;;;6125909;23;20414;-74
2021/07/17 05:30:30;;;;;;;9.27;3.27;;;19.30;99.90;;;;;;6099836;23;20536;-74
2021/07/17 05:32:58;;;;;;;6.30;3.30;;;19.40;99.90;;;;;;6126621;23;20413;-74
2021/07/17 05:35:28;;;;;;;5.57;3.23;;;19.40;99.90;;;;;;6138095;23;20397;-74
2021/07/17 05:37:56;;;;;;;9.00;3.77;;;19.40;99.90;;;;;;6137698;23;20895;-75
2021/07/17 05:40:25;;;;;;;6.93;3.07;;;19.50;99.90;;;;;;6101785;23;20457;-75
2021/07/17 05:42:55;;;;;;;5.83;2.80;;;19.50;99.90;;;;;;6102002;23;20511;-75
2021/07/17 05:45:23;;;;;;;11.23;3.60;;;19.60;99.90;;;;;;6137866;23;20460;-75
2021/07/17 05:47:52;;;;;;;7.03;2.90;;;19.70;99.90;;;;;;6128185;23;20417;-75
2021/07/17 05:50:21;;;;;;;5.90;3.10;;;19.90;99.90;;;;;;6137576;23;20421;-75
2021/07/17 05:52:49;;;;;;;5.67;3.20;;;20.00;99.90;;;;;;6137712;23;20397;-75
2021/07/17 05:55:17;;;;;;;10.03;3.17;;;20.20;99.90;;;;;;6127837;23;20773;-75
2021/07/17 05:57:45;;;;;;;6.70;3.00;;;20.30;99.90;;;;;;6101794;23;20418;-74
2021/07/17 06:00:19;;;;;;;8.80;2.87;;;20.50;99.90;;;;;;6127880;23;20553;-75
2021/07/17 06:02:48;;;;;;;5.70;3.53;;;20.70;99.90;;;;;;6137614;23;20389;-75
2021/07/17 06:05:16;;;;;;;8.13;3.00;;;20.90;99.90;;;;;;6137561;23;20804;-76
2021/07/17 06:07:45;;;;;;;10.30;3.17;;;21.10;99.90;;;;;;6127984;23;20412;-76
2021/07/17 06:10:15;;;;;;;6.40;3.10;;;21.30;99.90;;;;;;6101133;23;20445;-75
2021/07/17 06:12:43;;;;;;;5.00;2.43;;;21.50;99.90;;;;;;6127995;23;20162;-76
2021/07/17 06:15:12;;;;;;;6.37;2.73;;;21.70;99.90;;;;;;6101469;23;20432;-75
2021/07/17 06:17:41;;;;;;;8.27;3.03;;;21.90;99.90;;;;;;6127894;23;20424;-76
2021/07/17 06:20:11;;;;;;;6.93;2.50;;;22.10;99.90;;;;;;6100514;23;20419;-75
2021/07/17 06:22:39;;;;;;;4.80;2.37;;;22.30;99.90;;;;;;6101425;23;20723;-76
2021/07/17 06:25:08;;;;;;;8.77;3.93;;;22.50;99.90;;;;;;6101450;23;20505;-76
2021/07/17 06:27:36;;;;;;;6.07;2.23;;;22.60;99.90;;;;;;6137220;23;20876;-76
2021/07/17 06:30:05;;;;;;;9.03;3.17;;;22.80;99.90;;;;;;6127323;23;20430;-76
2021/07/17 06:32:35;;;;;;;6.03;2.27;;;22.90;99.90;;;;;;6101773;23;20500;-77
2021/07/17 06:35:05;;;;;;;8.43;3.13;;;23.00;99.90;;;;;;6101322;23;20422;-76
2021/07/17 06:37:40;;;;;;;5.33;2.67;;;23.10;99.90;;;;;;6137474;23;20426;-76
2021/07/17 06:40:12;;;;;;;6.93;3.37;;;23.20;99.90;;;;;;6137423;23;20444;-76
2021/07/17 06:42:45;;;;;;;5.67;2.40;;;23.40;99.90;;;;;;6137302;23;20433;-76
2021/07/17 06:45:14;;;;;;;6.50;2.57;;;23.50;99.90;;;;;;6137571;23;20382;-76
2021/07/17 06:47:42;;;;;;;10.13;3.07;;;23.70;99.90;;;;;;6137281;23;20413;-75
2021/07/17 06:50:17;;;;;;;9.07;2.53;;;23.80;99.90;;;;;;6137379;23;20422;-76
2021/07/17 06:52:45;;;;;;;4.03;2.27;;;23.90;99.90;;;;;;6137561;23;20468;-76
2021/07/17 06:55:14;;;;;;;5.00;2.67;;;24.00;99.90;;;;;;6137178;23;20488;-76
2021/07/17 06:57:45;;;;;;;9.30;3.57;;;24.00;99.90;;;;;;6127357;23;20406;-76
2021/07/17 07:00:15;;;;;;;3.77;2.33;;;24.10;99.90;;;;;;6137016;23;20907;-76
2021/07/17 07:02:49;;;;;;;5.07;2.90;;;24.20;99.90;;;;;;6102740;23;20700;-76
2021/07/17 07:05:19;;;;;;;3.83;2.10;;;24.20;99.90;;;;;;6101249;23;20421;-77
2021/07/17 07:07:47;;;;;;;6.27;2.57;;;24.30;99.90;;;;;;6101187;23;20754;-76
2021/07/17 07:10:18;;;;;;;3.93;2.33;;;24.40;99.90;;;;;;6101158;23;20512;-76
2021/07/17 07:12:46;;;;;;;8.67;3.20;;;24.50;99.90;;;;;;6101305;23;20496;-76
2021/07/17 07:15:16;;;;;;;4.75;2.35;;;24.60;99.90;;;;;;6136364;23;20402;-75
2021/07/17 07:17:45;;;;;;;6.17;2.47;;;24.60;99.90;;;;;;6101257;23;20260;-76
2021/07/17 07:20:14;;;;;;;3.90;2.23;;;24.70;99.90;;;;;;6100978;23;20444;-76
2021/07/17 07:22:44;;;;;;;5.33;2.57;;;24.70;99.90;;;;;;6137110;23;20725;-75
2021/07/17 07:25:12;;;;;;;5.13;3.10;;;24.80;99.90;;;;;;6101410;23;20454;-75
2021/07/17 07:27:42;;;;;;;6.20;2.27;;;24.90;99.90;;;;;;6101462;23;20418;-75
2021/07/17 07:30:10;;;;;;;7.97;3.07;;;25.00;99.90;;;;;;6136778;23;20510;-75
2021/07/17 07:32:54;;;;;;;7.57;2.90;;;25.10;99.90;;;;;;6101170;23;20416;-76
2021/07/17 07:35:23;;;;;;;4.60;2.67;;;25.10;99.90;;;;;;6100932;23;20935;-76
2021/07/17 07:37:54;;;;;;;4.03;2.60;;;25.20;99.90;;;;;;6100771;23;20424;-76
2021/07/17 07:40:25;;;;;;;4.23;2.20;;;25.20;99.90;;;;;;6137180;23;20461;-76
2021/07/17 07:42:53;;;;;;;4.47;2.60;;;25.20;99.90;;;;;;6100993;23;20409;-76
2021/07/17 07:45:22;;;;;;;6.03;3.20;;;25.10;99.90;;;;;;6136720;23;20497;-76
2021/07/17 07:47:51;;;;;;;5.77;3.20;;;25.00;99.90;;;;;;6137209;23;20497;-76
2021/07/17 07:50:21;;;;;;;6.43;2.73;;;24.90;99.90;;;;;;6137129;23;20425;-76
2021/07/17 07:52:50;;;;;;;8.20;3.00;;;24.90;99.90;;;;;;6100758;23;20421;-75
2021/07/17 07:55:19;;;;;;;7.83;2.53;;;25.00;99.90;;;;;;6100882;23;20469;-76
2021/07/17 07:57:48;;;;;;;5.88;2.63;;;25.00;99.90;;;;;;6136353;23;20402;-76
2021/07/17 08:00:17;;;;;;;8.20;3.00;;;25.10;99.90;;;;;;6136726;23;20280;-76
2021/07/17 08:02:57;;;;;;;5.07;3.10;;;25.10;99.90;;;;;;6101037;23;20418;-76
2021/07/17 08:05:27;;;;;;;7.30;3.50;;;25.00;99.90;;;;;;6100807;23;20456;-76
2021/07/17 08:07:55;;;;;;;7.20;2.40;;;25.00;99.90;;;;;;6100073;23;20418;-75
2021/07/17 08:10:24;;;;;;;5.60;2.70;;;25.00;99.90;;;;;;6133726;23;20225;-76
2021/07/17 08:12:53;;;;;;;4.87;2.67;;;25.00;99.90;;;;;;6137010;23;20855;-76
2021/07/17 08:15:23;;;;;;;5.07;2.40;;;25.00;99.90;;;;;;6101152;23;20500;-76
2021/07/17 08:17:51;;;;;;;4.73;3.00;;;25.00;99.90;;;;;;6101140;23;20481;-76
2021/07/17 08:20:24;;;;;;;4.43;2.30;;;25.00;99.90;;;;;;6100956;23;20524;-76
2021/07/17 08:22:53;;;;;;;5.60;2.10;;;25.00;99.90;;;;;;6136907;23;20923;-76
2021/07/17 08:25:21;;;;;;;6.37;2.30;;;24.90;99.90;;;;;;6101359;23;20856;-76
2021/07/17 08:27:50;;;;;;;6.73;2.93;;;24.90;99.90;;;;;;6136797;23;20406;-76
2021/07/17 08:30:19;;;;;;;3.50;2.53;;;24.90;99.90;;;;;;6126700;23;20440;-76
2021/07/17 08:32:52;;;;;;;6.73;2.40;;;24.80;99.90;;;;;;6101932;23;20712;-76
2021/07/17 08:35:20;;;;;;;5.07;2.77;;;24.70;99.90;;;;;;6100896;23;20883;-76
2021/07/17 08:37:48;;;;;;;4.77;2.00;;;24.80;99.90;;;;;;6100858;23;20550;-76
2021/07/17 08:40:16;;;;;;;6.23;2.67;;;24.90;99.90;;;;;;6100944;23;21013;-76
2021/07/17 08:42:46;;;;;;;5.07;2.90;;;24.90;99.90;;;;;;6100818;23;20437;-76
2021/07/17 08:45:16;;;;;;;4.13;2.43;;;25.00;99.90;;;;;;6137042;23;20425;-75
2021/07/17 08:47:45;;;;;;;5.33;2.30;;;25.10;99.90;;;;;;6137353;23;20940;-76
2021/07/17 08:50:16;;;;;;;6.40;2.73;;;25.10;99.90;;;;;;6100808;23;20436;-75
2021/07/17 08:52:44;;;;;;;4.17;2.43;;;25.20;99.90;;;;;;6137548;23;20397;-75
2021/07/17 08:55:13;;;;;;;4.88;2.30;;;25.30;99.90;;;;;;6136098;23;20410;-75
2021/07/17 08:57:42;;;;;;;4.13;2.30;;;25.40;99.90;;;;;;6100994;23;20173;-75
2021/07/17 09:00:13;;;;;;;3.30;2.10;;;25.50;99.90;;;;;;6136176;23;20998;-75
2021/07/17 09:02:54;;;;;;;3.60;2.20;;;25.50;99.90;;;;;;6100695;23;20433;-75
2021/07/17 09:05:25;;;;;;;6.57;2.57;;;25.50;99.90;;;;;;6101057;23;20425;-74
2021/07/17 09:07:54;;;;;;;4.60;2.50;;;25.50;99.90;;;;;;6100951;23;20417;-75
2021/07/17 09:10:35;;;;;;;3.40;1.80;;;25.50;99.90;;;;;;6103096;23;20445;-75
2021/07/17 09:13:11;;;;;;;5.37;2.17;;;25.50;99.90;;;;;;6102813;23;20491;-75
2021/07/17 09:15:42;;;;;;;3.77;2.03;;;25.50;99.90;;;;;;6128756;23;20390;-75
2021/07/17 09:18:12;;;;;;;3.83;2.13;;;25.50;99.90;;;;;;6138796;23;20378;-75
2021/07/17 09:20:56;;;;;;;7.33;4.00;;;25.40;99.90;;;;;;6102679;23;20767;-77
2021/07/17 09:23:25;;;;;;;9.03;2.20;;;25.50;99.90;;;;;;6103159;23;20928;-77
2021/07/17 09:25:55;;;;;;;3.40;1.73;;;25.50;99.90;;;;;;6128816;23;20786;-76
2021/07/17 09:28:24;;;;;;;2.30;1.80;;;25.50;99.90;;;;;;6102943;23;20416;-77
2021/07/17 09:30:55;;;;;;;6.13;2.33;;;25.50;99.90;;;;;;6138611;23;20446;-77
2021/07/17 09:33:25;;;;;;;5.57;2.17;;;25.50;99.90;;;;;;6102928;23;20456;-77
2021/07/17 09:35:56;;;;;;;5.43;2.53;;;25.50;99.90;;;;;;6103002;23;20479;-77
2021/07/17 09:38:26;;;;;;;7.07;2.43;;;25.40;99.90;;;;;;6129240;23;20422;-77
2021/07/17 09:40:57;;;;;;;7.07;1.60;;;25.40;99.90;;;;;;6102999;23;20533;-77
2021/07/17 09:43:30;;;;;;;4.93;1.70;;;25.40;99.90;;;;;;6138746;23;20508;-78
2021/07/17 09:45:59;;;;;;;4.60;1.57;;;25.50;99.90;;;;;;6138999;23;20388;-78
2021/07/17 09:48:31;;;;;;;8.63;3.80;;;25.50;99.90;;;;;;6138718;23;20406;-78
2021/07/17 09:51:01;;;;;;;7.43;2.97;;;25.50;99.90;;;;;;6102277;23;20467;-78
2021/07/17 09:53:37;;;;;;;5.50;2.10;;;25.50;99.90;;;;;;6101971;23;20417;-77
2021/07/17 09:56:06;;;;;;;3.83;1.70;;;25.60;99.90;;;;;;6102384;23;20488;-78
2021/07/17 09:58:37;;;;;;;2.10;1.60;;;25.70;99.90;;;;;;6102495;23;20421;-77
2021/07/17 10:01:20;;;;;;;3.50;1.80;;;25.70;99.90;;;;;;6137971;23;20763;-78
2021/07/17 10:03:52;;;;;;;3.63;2.27;;;25.70;99.90;;;;;;6102009;23;20940;-78
2021/07/17 10:06:30;;;;;;;3.57;1.53;;;25.70;99.90;;;;;;6102393;23;20500;-78
2021/07/17 10:08:59;;;;;;;5.47;2.07;;;25.70;99.90;;;;;;6137813;23;20417;-77
2021/07/17 10:11:31;;;;;;;1.90;1.67;;;25.60;99.90;;;;;;6101732;23;20433;-77
2021/07/17 10:14:16;;;;;;;3.90;1.37;;;25.50;99.90;;;;;;6138327;23;20386;-77
2021/07/17 10:16:45;;;;;;;1.70;1.20;;;25.50;99.90;;;;;;6137455;23;20763;-78
2021/07/17 10:19:15;;;;;;;3.00;1.60;;;25.60;99.90;;;;;;6100878;23;20446;-77
2021/07/17 10:21:44;;;;;;;3.80;1.80;;;25.60;99.90;;;;;;6101596;23;20530;-77
2021/07/17 10:24:14;;;;;;;3.73;1.70;;;25.60;99.90;;;;;;6102023;23;20966;-77
2021/07/17 10:26:42;;;;;;;4.53;1.57;;;25.60;99.90;;;;;;6128003;23;20707;-77
2021/07/17 10:29:12;;;;;;;3.73;1.73;;;25.60;99.90;;;;;;6101733;23;20457;-78
2021/07/17 10:31:42;;;;;;;5.60;1.97;;;25.60;99.90;;;;;;6101988;23;20469;-77
2021/07/17 10:34:11;;;;;;;3.67;1.60;;;25.60;99.90;;;;;;6137418;23;20404;-77
2021/07/17 10:36:47;;;;;;;2.40;1.37;;;25.60;99.90;;;;;;6101789;23;20418;-78
2021/07/17 10:39:16;;;;;;;3.00;1.87;;;25.70;99.90;;;;;;6101655;23;20441;-77
2021/07/17 10:41:46;;;;;;;2.27;1.50;;;25.70;99.90;;;;;;6137291;23;20798;-77
2021/07/17 10:44:14;;;;;;;2.53;1.47;;;25.70;99.90;;;;;;6137836;23;20425;-78
2021/07/17 10:46:45;;;;;;;3.27;1.80;;;25.80;99.90;;;;;;6102663;23;20983;-78
2021/07/17 10:49:14;;;;;;;3.83;1.60;;;25.80;99.80;;;;;;6100637;23;20470;-77
2021/07/17 10:51:50;;;;;;;4.33;1.43;;;25.80;99.40;;;;;;6101366;23;20201;-77
2021/07/17 10:54:30;;;;;;;2.97;1.90;;;25.80;99.40;;;;;;6101813;23;20413;-77
2021/07/17 10:56:59;;;;;;;5.43;1.90;;;25.80;99.50;;;;;;6101445;23;20418;-78
2021/07/17 10:59:47;;;;;;;3.90;1.60;;;25.80;99.60;;;;;;6101331;23;20460;-77
2021/07/17 11:02:22;;;;;;;3.70;2.07;;;25.80;99.80;;;;;;6101350;23;20410;-77
2021/07/17 11:04:54;;;;;;;3.10;1.70;;;25.80;99.80;;;;;;6101473;23;20409;-77
2021/07/17 11:07:43;;;;;;;4.83;2.70;;;25.80;99.70;;;;;;6101789;23;20429;-77
2021/07/17 11:10:21;;;;;;;3.57;2.33;;;25.80;99.80;;;;;;6135182;23;20473;-77
2021/07/17 11:13:07;;;;;;;7.20;1.90;;;25.80;99.70;;;;;;6101381;23;20441;-77
2021/07/17 11:15:40;;;;;;;3.70;1.67;;;25.80;99.70;;;;;;6137671;23;20671;-77
2021/07/17 11:18:40;;;;;;;6.00;2.50;;;25.80;99.70;;;;;;6137090;23;20469;-78
2021/07/17 11:21:10;;;;;;;4.53;1.87;;;25.80;99.60;;;;;;6101212;23;20473;-77
2021/07/17 11:23:45;;;;;;;2.90;1.70;;;25.70;99.80;;;;;;6101262;23;20484;-76
2021/07/17 11:26:21;;;;;;;4.88;1.50;;;25.70;99.80;;;;;;6100581;23;20505;-77
2021/07/17 11:29:04;;;;;;;3.60;1.50;;;25.80;99.30;;;;;;6137817;23;20161;-77
2021/07/17 11:31:54;;;;;;;4.80;1.83;;;25.70;99.10;;;;;;6137088;23;20449;-77
2021/07/17 11:34:35;;;;;;;3.90;1.40;;;25.70;99.20;;;;;;6100820;23;20785;-77
2021/07/17 11:37:08;;;;;;;2.50;1.70;;;25.80;99.10;;;;;;6101214;23;20221;-77
2021/07/17 11:39:41;;;;;;;3.73;1.60;;;25.80;99.10;;;;;;6102605;23;20455;-77
2021/07/17 11:42:12;;;;;;;2.80;1.67;;;25.80;99.00;;;;;;6137024;23;20409;-77
2021/07/17 11:44:42;;;;;;;4.70;1.57;;;25.80;99.00;;;;;;6100927;23;20438;-77
2021/07/17 11:47:12;;;;;;;1.90;1.50;;;25.90;99.10;;;;;;6100952;23;20433;-77
2021/07/17 11:49:42;;;;;;;5.30;1.87;;;25.90;99.20;;;;;;6100742;23;20457;-76
2021/07/17 11:52:13;;;;;;;2.40;1.20;;;25.90;99.30;;;;;;6100848;23;20426;-76
2021/07/17 11:54:44;;;;;;;2.73;1.60;;;25.90;99.30;;;;;;6136763;23;20472;-76
2021/07/17 11:57:23;;;;;;;2.87;1.23;;;26.00;99.10;;;;;;6100915;23;20434;-76
2021/07/17 12:00:08;;;;;;;3.10;1.57;;;26.10;98.70;;;;;;6100838;23;20449;-76
2021/07/17 12:02:54;;;;;;;2.73;2.10;;;26.00;98.50;;;;;;6100760;23;20437;-76
2021/07/17 12:05:23;;;;;;;1.50;1.37;;;26.00;98.40;;;;;;6136608;23;20743;-76
2021/07/17 12:07:51;;;;;;;2.43;1.60;;;26.00;98.30;;;;;;6136511;23;20445;-76
2021/07/17 12:10:23;;;;;;;2.25;1.42;;;26.00;98.20;;;;;;6135341;23;20448;-76
2021/07/17 12:12:53;;;;;;;2.90;1.33;;;26.10;97.10;;;;;;6100785;23;20507;-76
2021/07/17 12:15:23;;;;;;;3.00;1.90;;;26.10;97.20;;;;;;6136484;23;20899;-76
2021/07/17 12:17:55;;;;;;;4.60;1.90;;;26.10;97.30;;;;;;6100820;23;20453;-76
2021/07/17 12:20:29;;;;;;;3.22;1.50;;;26.10;97.30;;;;;;6099601;23;20418;-76
2021/07/17 12:23:04;;;;;;;3.37;1.60;;;26.20;96.70;;;;;;6100676;23;20182;-75
2021/07/17 12:25:35;;;;;;;4.50;1.50;;;26.10;96.70;;;;;;6100454;23;20416;-76
2021/07/17 12:28:09;;;;;;;1.80;1.50;;;26.10;96.90;;;;;;6100559;23;20417;-76
2021/07/17 12:30:41;;;;;;;2.20;1.40;;;26.00;97.00;;;;;;6101212;23;20444;-75
2021/07/17 12:33:28;;;;;;;3.20;1.60;;;26.00;97.10;;;;;;6100510;23;20410;-76
2021/07/17 12:36:09;;;;;;;4.20;1.83;;;25.90;97.10;;;;;;6100697;23;20741;-76
2021/07/17 12:38:40;;;;;;;1.90;1.23;;;25.90;97.20;;;;;;6100699;23;20410;-75
2021/07/17 12:41:13;;;;;;;3.17;1.80;;;25.90;97.30;;;;;;6100112;23;20464;-76
2021/07/17 12:43:44;;;;;;;3.77;1.50;;;25.90;97.30;;;;;;6100216;23;20485;-76
2021/07/17 12:46:16;;;;;;;4.30;1.83;;;25.90;97.40;;;;;;6136648;23;20445;-76
2021/07/17 12:48:48;;;;;;;2.80;1.40;;;25.90;97.40;;;;;;6100499;23;20451;-76
2021/07/17 12:51:20;;;;;;;2.43;1.77;;;25.90;97.50;;;;;;6100426;23;20497;-76
2021/07/17 12:53:49;;;;;;;2.97;1.60;;;26.00;97.60;;;;;;6100608;23;20409;-76
2021/07/17 12:56:40;;;;;;;2.07;1.60;;;26.00;97.60;;;;;;6100554;23;20517;-76
2021/07/17 12:59:14;;;;;;;1.75;1.38;;;26.00;97.60;;;;;;6135349;23;20869;-76
2021/07/17 13:01:47;;;;;;;3.10;1.60;;;26.00;97.40;;;;;;6099997;23;20260;-76
2021/07/17 13:04:18;;;;;;;5.23;1.60;;;26.00;97.50;;;;;;6100414;23;20433;-76
2021/07/17 13:06:56;;;;;;;3.43;1.43;;;26.00;97.60;;;;;;6136352;23;20405;-76
2021/07/17 13:09:29;;;;;;;4.80;1.80;;;26.00;97.60;;;;;;6136442;23;20481;-76
2021/07/17 13:11:59;;;;;;;2.83;2.03;;;26.00;97.60;;;;;;6100202;23;20445;-76
2021/07/17 13:14:28;;;;;;;2.40;1.40;;;25.90;98.00;;;;;;6100464;23;20418;-76
2021/07/17 13:16:57;;;;;;;3.23;1.73;;;25.90;97.70;;;;;;6100521;23;20722;-76
2021/07/17 13:19:26;;;;;;;2.60;2.00;;;26.00;97.80;;;;;;6100343;23;20425;-76
2021/07/17 13:22:03;;;;;;;3.40;1.50;;;26.00;97.80;;;;;;6101038;23;20430;-76
2021/07/17 13:24:51;;;;;;;3.13;1.50;;;26.10;97.70;;;;;;6100176;23;20529;-75
2021/07/17 13:27:22;;;;;;;3.43;1.87;;;26.10;97.40;;;;;;6136126;23;20397;-76
2021/07/17 13:29:51;;;;;;;1.87;1.67;;;26.10;97.40;;;;;;6100260;23;20449;-76
2021/07/17 13:32:27;;;;;;;2.10;1.77;;;26.10;97.20;;;;;;6136053;23;20402;-76
2021/07/17 13:34:57;;;;;;;2.97;1.60;;;26.00;96.90;;;;;;6098986;23;20485;-76
2021/07/17 13:37:26;;;;;;;3.40;1.60;;;26.10;96.10;;;;;;6100298;23;20189;-75
2021/07/17 13:39:55;;;;;;;2.90;2.17;;;26.10;96.20;;;;;;6136159;23;20432;-75
2021/07/17 13:42:27;;;;;;;1.87;1.70;;;26.00;96.30;;;;;;6100363;23;20448;-76
2021/07/17 13:45:03;;;;;;;3.50;1.27;;;26.00;96.40;;;;;;6098351;23;20429;-75
2021/07/17 13:47:36;;;;;;;3.77;2.13;;;26.10;95.40;;;;;;6100319;23;20500;-75
2021/07/17 13:50:23;;;;;;;1.40;1.30;;;26.00;95.50;;;;;;6136513;23;20943;-75
2021/07/17 13:53:09;;;;;;;1.80;1.20;;;26.00;95.50;;;;;;6100219;23;20464;-75
2021/07/17 13:55:39;;;;;;;4.03;2.13;;;25.90;95.80;;;;;;6137846;23;20416;-75
2021/07/17 13:58:12;;;;;;;5.40;2.43;;;25.80;96.00;;;;;;6102216;23;20479;-75
2021/07/17 14:00:42;;;;;;;3.23;1.90;;;25.90;96.00;;;;;;6101941;23;20537;-75
2021/07/17 14:03:11;;;;;;;3.00;1.60;;;25.90;96.00;;;;;;6102123;23;20456;-75